Time;durP1;ratioP1;P1;durP2;ratioP2;P2;SDS_P1;SDS_P2;PMS_P1;PMS_P2;Temp;Humidity;BMP_temperature;BMP_pressure;BME280_temperature;BME280_humidity;BME280_pressure;Samples;Min_cycle;Max_cycle;Signal;HPM_P1;HPM_P2
2023/12/30 00:02:04;;;;;;;10.88;2.75;;;20.70;59.10;;;;;;5127926;27;20079;-66
2023/12/30 00:04:30;;;;;;;18.15;3.00;;;20.60;59.00;;;;;;5127952;27;20141;-66
2023/12/30 00:06:57;;;;;;;18.10;3.05;;;20.50;59.00;;;;;;5127011;27;20076;-67
2023/12/30 00:09:23;;;;;;;15.40;3.20;;;20.40;59.00;;;;;;5126315;27;20121;-67
2023/12/30 00:11:50;;;;;;;11.40;2.83;;;20.30;59.40;;;;;;5126428;27;20078;-67
2023/12/30 00:14:16;;;;;;;15.65;2.75;;;20.20;59.50;;;;;;5127016;27;20068;-66
2023/12/30 00:16:43;;;;;;;16.20;3.28;;;20.10;59.80;;;;;;5125478;27;20100;-66
2023/12/30 00:19:12;;;;;;;24.58;4.20;;;20.00;59.80;;;;;;5127940;27;20087;-66
2023/12/30 00:21:38;;;;;;;26.27;3.92;;;19.90;60.90;;;;;;5125554;27;20079;-66
2023/12/30 00:24:05;;;;;;;26.20;4.80;;;19.80;61.80;;;;;;5127370;27;20099;-66
2023/12/30 00:26:32;;;;;;;31.05;4.53;;;19.70;62.20;;;;;;5106969;27;20551;-65
2023/12/30 00:28:59;;;;;;;34.33;4.85;;;19.70;63.20;;;;;;5127014;27;20078;-66
2023/12/30 00:31:30;;;;;;;30.95;4.80;;;19.50;63.70;;;;;;5108270;27;20529;-66
2023/12/30 00:33:59;;;;;;;32.97;4.60;;;19.40;64.20;;;;;;5108219;27;20209;-65
2023/12/30 00:36:28;;;;;;;27.42;5.57;;;19.30;64.60;;;;;;5127676;27;20089;-65
2023/12/30 00:38:55;;;;;;;40.47;6.38;;;19.10;65.00;;;;;;5128050;27;20076;-66
2023/12/30 00:41:22;;;;;;;44.22;6.85;;;19.00;65.10;;;;;;5126955;27;20589;-65
2023/12/30 00:43:49;;;;;;;44.50;7.25;;;18.90;65.60;;;;;;5126761;27;20118;-66
2023/12/30 00:46:19;;;;;;;38.08;6.82;;;18.70;66.80;;;;;;5126863;27;20127;-66
2023/12/30 00:48:47;;;;;;;37.42;7.97;;;18.60;67.40;;;;;;5126386;27;20067;-66
2023/12/30 00:51:13;;;;;;;43.55;8.75;;;18.50;68.00;;;;;;5126219;27;20072;-66
2023/12/30 00:53:40;;;;;;;38.60;7.05;;;18.50;68.20;;;;;;5125877;27;20509;-66
2023/12/30 00:56:07;;;;;;;36.95;7.47;;;18.40;68.60;;;;;;5126888;27;20072;-65
2023/12/30 00:58:33;;;;;;;39.28;7.50;;;18.20;69.60;;;;;;5125941;27;20155;-66
2023/12/30 01:01:00;;;;;;;34.67;8.15;;;18.20;71.10;;;;;;5126549;27;20247;-66
2023/12/30 01:03:26;;;;;;;47.92;10.50;;;18.10;72.10;;;;;;5124814;27;20099;-67
2023/12/30 01:05:53;;;;;;;71.10;13.75;;;18.00;72.00;;;;;;5126364;28;20363;-67
2023/12/30 01:08:20;;;;;;;77.45;13.65;;;17.90;72.50;;;;;;5125272;28;20072;-67
2023/12/30 01:10:46;;;;;;;56.35;12.60;;;17.90;72.90;;;;;;5125805;28;20068;-67
2023/12/30 01:13:13;;;;;;;56.83;12.07;;;17.90;72.90;;;;;;5125738;28;20124;-67
2023/12/30 01:15:39;;;;;;;47.78;12.23;;;17.80;73.70;;;;;;5127710;28;20159;-67
2023/12/30 01:18:06;;;;;;;79.22;14.48;;;17.70;73.90;;;;;;5127804;28;20086;-67
2023/12/30 01:20:32;;;;;;;77.47;13.65;;;17.60;74.00;;;;;;5125665;28;20111;-68
2023/12/30 01:22:59;;;;;;;76.28;15.15;;;17.60;74.80;;;;;;5126215;28;20111;-66
2023/12/30 01:25:25;;;;;;;75.45;15.63;;;17.40;75.60;;;;;;5127294;28;20072;-67
2023/12/30 01:27:52;;;;;;;67.72;15.57;;;17.40;75.80;;;;;;5129178;27;20102;-66
2023/12/30 01:30:18;;;;;;;61.45;14.25;;;17.30;76.20;;;;;;5112798;27;20071;-69
2023/12/30 01:32:45;;;;;;;72.07;16.30;;;17.20;77.20;;;;;;5130354;27;20249;-67
2023/12/30 01:35:14;;;;;;;85.50;16.30;;;17.10;78.00;;;;;;5131208;27;20086;-65
2023/12/30 01:37:40;;;;;;;66.00;15.13;;;17.10;78.40;;;;;;5130578;27;20071;-66
2023/12/30 01:40:08;;;;;;;72.25;14.43;;;16.90;79.10;;;;;;5129450;27;20074;-65
2023/12/30 01:42:35;;;;;;;62.53;14.45;;;16.90;79.40;;;;;;5130873;27;20104;-66
2023/12/30 01:45:02;;;;;;;70.65;15.52;;;16.80;80.00;;;;;;5128656;27;20095;-66
2023/12/30 01:47:29;;;;;;;66.85;15.55;;;16.70;80.20;;;;;;5129871;27;20095;-66
2023/12/30 01:49:55;;;;;;;70.53;15.90;;;16.70;81.20;;;;;;5129732;27;20521;-66
2023/12/30 01:52:22;;;;;;;52.92;15.43;;;16.60;81.20;;;;;;5129232;27;20464;-66
2023/12/30 01:54:49;;;;;;;58.53;15.50;;;16.60;81.90;;;;;;5130167;27;20111;-65
2023/12/30 01:57:16;;;;;;;55.13;15.75;;;16.50;81.60;;;;;;5111434;27;20080;-66
2023/12/30 01:59:45;;;;;;;71.38;15.90;;;16.50;81.40;;;;;;5129637;27;20076;-66
2023/12/30 02:02:11;;;;;;;69.18;16.70;;;16.50;82.30;;;;;;5130538;27;20068;-66
2023/12/30 02:04:38;;;;;;;89.57;17.10;;;16.50;83.00;;;;;;5129800;27;20273;-66
2023/12/30 02:07:05;;;;;;;78.35;17.65;;;16.40;84.00;;;;;;5131266;27;20083;-67
2023/12/30 02:09:32;;;;;;;70.15;16.00;;;16.30;84.30;;;;;;5128854;27;20080;-67
2023/12/30 02:11:59;;;;;;;75.50;16.35;;;16.20;85.00;;;;;;5129807;27;20076;-69
2023/12/30 02:14:33;;;;;;;63.83;16.80;;;16.20;85.30;;;;;;5129141;27;20530;-69
2023/12/30 02:16:59;;;;;;;81.72;18.35;;;16.10;85.40;;;;;;5129469;27;20497;-67
2023/12/30 02:19:26;;;;;;;87.63;17.63;;;16.00;85.50;;;;;;5111502;27;20159;-68
2023/12/30 02:21:53;;;;;;;70.63;18.17;;;16.10;85.70;;;;;;5110970;27;20075;-67
2023/12/30 02:24:20;;;;;;;84.75;19.98;;;16.00;86.50;;;;;;5128514;27;20140;-69
2023/12/30 02:26:47;;;;;;;96.18;20.30;;;16.00;86.10;;;;;;5129312;27;20492;-67
2023/12/30 02:29:13;;;;;;;95.95;18.83;;;16.00;86.70;;;;;;5126793;27;20147;-68
2023/12/30 02:31:46;;;;;;;89.32;19.83;;;15.90;87.50;;;;;;5128064;27;20076;-68
2023/12/30 02:34:19;;;;;;;92.35;21.25;;;15.90;88.20;;;;;;5127903;27;20154;-68
2023/12/30 02:36:47;;;;;;;100.80;20.98;;;15.90;88.10;;;;;;5126286;27;20137;-67
2023/12/30 02:39:13;;;;;;;126.10;23.20;;;15.90;88.30;;;;;;5122874;27;20426;-68
2023/12/30 02:41:40;;;;;;;85.97;21.10;;;15.80;89.40;;;;;;5128255;27;20425;-69
2023/12/30 02:44:07;;;;;;;94.90;22.50;;;15.70;90.20;;;;;;5125295;27;20115;-69
2023/12/30 02:46:33;;;;;;;77.80;22.50;;;15.70;90.10;;;;;;5128330;27;20107;-68
2023/12/30 02:49:04;;;;;;;76.95;21.42;;;15.70;90.40;;;;;;5127811;27;20517;-69
2023/12/30 02:51:31;;;;;;;86.93;22.00;;;15.60;90.40;;;;;;5127639;27;20064;-68
2023/12/30 02:53:58;;;;;;;85.28;24.58;;;15.60;90.70;;;;;;5126734;27;20477;-68
2023/12/30 02:56:27;;;;;;;94.57;24.92;;;15.60;90.90;;;;;;5128751;27;20629;-67
2023/12/30 02:59:01;;;;;;;99.50;26.67;;;15.60;91.10;;;;;;5127538;27;20092;-68
2023/12/30 03:01:30;;;;;;;91.20;27.17;;;15.50;91.50;;;;;;5127662;27;20077;-68
2023/12/30 03:03:59;;;;;;;117.53;31.48;;;15.50;91.30;;;;;;5128575;27;20103;-68
2023/12/30 03:06:26;;;;;;;105.20;28.98;;;15.50;91.20;;;;;;5126348;27;20563;-68
2023/12/30 03:08:53;;;;;;;100.22;29.88;;;15.50;91.10;;;;;;5127495;27;20113;-68
2023/12/30 03:11:20;;;;;;;93.20;29.02;;;15.50;91.70;;;;;;5128145;27;20086;-70
2023/12/30 03:13:47;;;;;;;83.40;30.13;;;15.50;92.00;;;;;;5126941;27;20068;-71
2023/12/30 03:16:14;;;;;;;90.18;29.52;;;15.40;91.70;;;;;;5129371;27;20489;-71
2023/12/30 03:18:42;;;;;;;78.57;29.85;;;15.40;91.40;;;;;;5123832;27;20071;-71
2023/12/30 03:21:10;;;;;;;87.28;29.00;;;15.30;91.70;;;;;;5125520;27;20071;-69
2023/12/30 03:23:37;;;;;;;69.95;29.20;;;15.30;91.60;;;;;;5129499;27;20601;-71
2023/12/30 03:26:05;;;;;;;71.85;29.85;;;15.30;91.70;;;;;;5126701;27;20079;-70
2023/12/30 03:28:32;;;;;;;82.65;32.03;;;15.20;91.70;;;;;;5126938;27;20078;-71
2023/12/30 03:30:58;;;;;;;89.30;33.22;;;15.20;91.60;;;;;;5129074;27;20072;-70
2023/12/30 03:33:25;;;;;;;77.32;31.77;;;15.20;91.60;;;;;;5128422;27;20166;-70
2023/12/30 03:35:52;;;;;;;100.22;36.50;;;15.20;91.80;;;;;;5128452;27;20078;-70
2023/12/30 03:38:19;;;;;;;84.45;34.80;;;15.20;92.00;;;;;;5128644;27;20099;-70
2023/12/30 03:40:45;;;;;;;109.47;39.33;;;15.20;92.20;;;;;;5128296;27;20068;-70
2023/12/30 03:43:13;;;;;;;91.57;37.22;;;15.20;92.40;;;;;;5127460;27;20103;-70
2023/12/30 03:45:40;;;;;;;112.05;38.72;;;15.10;92.90;;;;;;5127892;27;20219;-71
2023/12/30 03:48:07;;;;;;;96.45;37.28;;;15.00;92.80;;;;;;5127770;27;20072;-71
2023/12/30 03:50:36;;;;;;;106.90;39.20;;;15.00;92.80;;;;;;5126766;27;20140;-71
2023/12/30 03:53:04;;;;;;;119.50;41.03;;;15.00;92.90;;;;;;5126999;27;20103;-69
2023/12/30 03:55:31;;;;;;;113.05;38.92;;;15.00;93.30;;;;;;5106587;27;20102;-68
2023/12/30 03:57:57;;;;;;;113.47;38.22;;;14.90;93.40;;;;;;5128708;27;20076;-68
2023/12/30 04:00:23;;;;;;;118.85;38.38;;;14.90;93.50;;;;;;5127433;27;20106;-68
2023/12/30 04:02:50;;;;;;;111.70;40.28;;;14.80;93.30;;;;;;5128057;27;20199;-67
2023/12/30 04:05:16;;;;;;;107.57;39.35;;;14.80;93.40;;;;;;5127701;27;20075;-67
2023/12/30 04:07:43;;;;;;;124.38;41.20;;;14.70;93.90;;;;;;5126457;27;20087;-67
2023/12/30 04:10:12;;;;;;;120.35;41.70;;;14.70;93.90;;;;;;5128318;27;20429;-67
2023/12/30 04:12:38;;;;;;;126.43;43.00;;;14.70;94.10;;;;;;5127476;27;20103;-67
2023/12/30 04:15:07;;;;;;;132.77;43.83;;;14.70;94.40;;;;;;5127848;27;20079;-67
2023/12/30 04:17:34;;;;;;;101.55;43.92;;;14.70;94.60;;;;;;5127663;27;20145;-67
2023/12/30 04:20:00;;;;;;;99.32;42.30;;;14.60;94.70;;;;;;5128209;27;20084;-67
2023/12/30 04:22:28;;;;;;;136.55;42.25;;;14.60;94.90;;;;;;5112776;27;20481;-67
2023/12/30 04:24:59;;;;;;;145.60;43.10;;;14.60;94.50;;;;;;5134392;27;20186;-67
2023/12/30 04:27:26;;;;;;;170.82;47.28;;;14.60;94.60;;;;;;5131384;27;20090;-66
2023/12/30 04:29:52;;;;;;;120.13;43.03;;;14.60;94.40;;;;;;5128201;27;20502;-67
2023/12/30 04:32:24;;;;;;;155.18;48.63;;;14.70;94.40;;;;;;5127756;27;20155;-68
2023/12/30 04:34:51;;;;;;;173.27;50.95;;;14.60;94.40;;;;;;5109703;27;20068;-67
2023/12/30 04:37:19;;;;;;;201.45;50.25;;;14.60;94.50;;;;;;5128089;27;20083;-67
2023/12/30 04:39:45;;;;;;;178.73;50.58;;;14.60;94.60;;;;;;5128559;27;20095;-67
2023/12/30 04:42:12;;;;;;;173.27;49.17;;;14.60;94.70;;;;;;5125609;27;20072;-67
2023/12/30 04:44:39;;;;;;;191.70;49.38;;;14.60;95.10;;;;;;5109394;27;20558;-66
2023/12/30 04:47:06;;;;;;;148.90;44.92;;;14.50;95.20;;;;;;5125398;27;20110;-66
2023/12/30 04:49:33;;;;;;;202.07;48.95;;;14.50;95.30;;;;;;5124805;27;20531;-67
2023/12/30 04:51:59;;;;;;;175.23;45.30;;;14.50;95.90;;;;;;5108990;27;20080;-69
2023/12/30 04:54:26;;;;;;;200.80;47.67;;;14.40;96.10;;;;;;5108773;27;20106;-68
2023/12/30 04:56:52;;;;;;;176.90;45.63;;;14.40;96.20;;;;;;5126476;27;20084;-68
2023/12/30 04:59:20;;;;;;;160.95;45.13;;;14.40;96.50;;;;;;5125932;27;20626;-68
2023/12/30 05:01:47;;;;;;;159.85;43.28;;;14.30;96.60;;;;;;5125778;27;20072;-69
2023/12/30 05:04:13;;;;;;;136.38;40.00;;;14.30;96.80;;;;;;5127127;27;20152;-68
2023/12/30 05:06:40;;;;;;;112.97;40.15;;;14.30;96.90;;;;;;5126662;27;20071;-68
2023/12/30 05:09:06;;;;;;;140.48;41.08;;;14.30;97.00;;;;;;5127342;28;20068;-68
2023/12/30 05:11:33;;;;;;;174.63;40.25;;;14.20;97.10;;;;;;5126552;28;20728;-68
2023/12/30 05:13:59;;;;;;;156.35;43.28;;;14.20;97.50;;;;;;5126694;28;20540;-68
2023/12/30 05:16:26;;;;;;;148.30;42.28;;;14.10;97.60;;;;;;5108962;28;20414;-68
2023/12/30 05:18:52;;;;;;;160.40;46.50;;;14.00;97.90;;;;;;5127200;28;20125;-69
2023/12/30 05:21:19;;;;;;;140.13;45.58;;;13.90;98.10;;;;;;5127471;28;20072;-69
2023/12/30 05:23:46;;;;;;;133.70;42.10;;;14.00;98.30;;;;;;5126729;28;20491;-70
2023/12/30 05:26:12;;;;;;;124.13;39.92;;;14.00;98.40;;;;;;5126348;28;20208;-69
2023/12/30 05:28:39;;;;;;;148.48;40.85;;;13.90;98.30;;;;;;5124591;28;20096;-69
2023/12/30 05:31:06;;;;;;;146.25;41.15;;;13.90;98.50;;;;;;5126717;28;20075;-69
2023/12/30 05:33:32;;;;;;;117.13;37.63;;;13.80;98.40;;;;;;5127255;28;20075;-68
2023/12/30 05:35:59;;;;;;;104.90;34.80;;;13.80;98.80;;;;;;5125469;28;20111;-69
2023/12/30 05:38:25;;;;;;;115.97;35.30;;;13.80;99.00;;;;;;5125009;28;20102;-68
2023/12/30 05:40:52;;;;;;;111.13;35.25;;;13.70;98.90;;;;;;5126592;28;20605;-67
2023/12/30 05:43:18;;;;;;;100.00;33.28;;;13.70;99.10;;;;;;5108015;28;20103;-66
2023/12/30 05:45:45;;;;;;;110.70;34.88;;;13.70;99.10;;;;;;5125088;28;20199;-67
2023/12/30 05:48:11;;;;;;;120.43;34.75;;;13.70;99.20;;;;;;5126899;28;20429;-68
2023/12/30 05:50:38;;;;;;;96.57;34.13;;;13.60;99.40;;;;;;5127123;28;20082;-68
2023/12/30 05:53:05;;;;;;;97.70;34.45;;;13.70;99.50;;;;;;5128336;28;20086;-67
2023/12/30 05:55:31;;;;;;;98.55;33.28;;;13.70;99.60;;;;;;5124112;28;20080;-68
2023/12/30 05:57:57;;;;;;;87.88;34.63;;;13.60;99.70;;;;;;5126344;28;20072;-69
2023/12/30 06:00:24;;;;;;;103.32;34.95;;;13.60;99.90;;;;;;5125330;28;20072;-68
2023/12/30 06:02:52;;;;;;;101.07;34.75;;;13.50;99.90;;;;;;5124256;28;20072;-68
2023/12/30 06:05:18;;;;;;;108.78;34.05;;;13.50;99.90;;;;;;5126892;28;20070;-67
2023/12/30 06:07:45;;;;;;;84.30;33.65;;;13.40;99.90;;;;;;5123728;28;20147;-68
2023/12/30 06:10:11;;;;;;;87.22;34.40;;;13.30;99.90;;;;;;5124909;28;20067;-68
2023/12/30 06:12:39;;;;;;;95.28;33.10;;;13.30;99.90;;;;;;5126669;27;20075;-68
2023/12/30 06:15:06;;;;;;;87.55;31.75;;;13.30;99.90;;;;;;5112008;27;20175;-68
2023/12/30 06:17:33;;;;;;;75.57;30.33;;;13.30;99.90;;;;;;5131299;27;20072;-69
2023/12/30 06:19:59;;;;;;;80.32;31.83;;;13.30;99.90;;;;;;5129529;27;20083;-68
2023/12/30 06:22:26;;;;;;;65.70;28.98;;;13.30;99.90;;;;;;5130570;27;20086;-68
2023/12/30 06:24:52;;;;;;;73.28;29.08;;;13.20;99.90;;;;;;5129612;27;20107;-67
2023/12/30 06:27:20;;;;;;;57.83;26.33;;;13.20;99.90;;;;;;5130219;27;20180;-67
2023/12/30 06:29:47;;;;;;;64.57;25.52;;;13.20;99.90;;;;;;5112185;27;20083;-67
2023/12/30 06:32:13;;;;;;;59.63;25.25;;;13.20;99.90;;;;;;5129436;27;20074;-68
2023/12/30 06:34:40;;;;;;;52.20;23.98;;;13.20;99.90;;;;;;5129649;27;20083;-68
2023/12/30 06:37:07;;;;;;;61.35;24.85;;;13.20;99.90;;;;;;5126940;27;20407;-68
2023/12/30 06:39:33;;;;;;;55.83;23.70;;;13.10;99.90;;;;;;5129918;27;20158;-68
2023/12/30 06:42:00;;;;;;;52.75;22.45;;;13.10;99.90;;;;;;5110076;27;20534;-68
2023/12/30 06:44:26;;;;;;;48.45;20.17;;;13.10;99.90;;;;;;5130397;27;20292;-68
2023/12/30 06:46:54;;;;;;;43.17;19.90;;;13.00;99.90;;;;;;5128520;27;20112;-68
2023/12/30 06:49:20;;;;;;;57.05;20.70;;;13.00;99.90;;;;;;5128744;27;20525;-68
2023/12/30 06:51:47;;;;;;;45.40;20.20;;;12.90;99.90;;;;;;5125926;27;20200;-68
2023/12/30 06:54:13;;;;;;;46.53;19.52;;;12.90;99.90;;;;;;5126548;27;20525;-68
2023/12/30 06:56:40;;;;;;;40.00;19.38;;;13.00;99.90;;;;;;5128668;27;20079;-67
2023/12/30 06:59:06;;;;;;;42.30;18.50;;;12.90;99.90;;;;;;5111300;27;20102;-68
2023/12/30 07:01:37;;;;;;;46.28;19.65;;;12.90;99.90;;;;;;5127394;27;20068;-68
2023/12/30 07:04:04;;;;;;;45.15;19.15;;;12.90;99.90;;;;;;5129422;27;20103;-68
2023/12/30 07:06:30;;;;;;;44.90;20.05;;;12.90;99.90;;;;;;5127745;27;20529;-68
2023/12/30 07:08:56;;;;;;;;;;;12.90;99.90;;;;;;5111025;27;20094;-68
2023/12/30 07:11:23;;;;;;;61.22;22.65;;;12.80;99.90;;;;;;5110435;27;20328;-68
2023/12/30 07:13:50;;;;;;;55.00;22.25;;;12.70;99.90;;;;;;5114054;27;20493;-69
2023/12/30 07:16:16;;;;;;;53.78;23.10;;;12.70;99.90;;;;;;5137470;27;20509;-68
2023/12/30 07:18:43;;;;;;;55.67;22.17;;;12.70;99.90;;;;;;5133313;27;20108;-68
2023/12/30 07:21:09;;;;;;;54.55;24.25;;;12.60;99.90;;;;;;5128901;27;20525;-68
2023/12/30 07:23:35;;;;;;;56.90;25.80;;;12.60;99.90;;;;;;5129499;27;20095;-69
2023/12/30 07:26:02;;;;;;;46.58;25.33;;;12.60;99.90;;;;;;5126649;27;20075;-68
2023/12/30 07:28:29;;;;;;;46.33;26.42;;;12.70;99.90;;;;;;5129306;27;20159;-68
2023/12/30 07:30:55;;;;;;;66.05;27.88;;;12.60;99.90;;;;;;5129375;27;20064;-70
2023/12/30 07:33:23;;;;;;;58.92;27.70;;;12.60;99.90;;;;;;5129224;27;20074;-68
2023/12/30 07:35:49;;;;;;;60.65;27.75;;;12.60;99.90;;;;;;5126088;27;20071;-67
2023/12/30 07:38:15;;;;;;;64.57;28.83;;;12.60;99.90;;;;;;5108011;27;20079;-63
2023/12/30 07:40:42;;;;;;;64.43;29.20;;;12.50;99.90;;;;;;5127705;27;20436;-62
2023/12/30 07:43:08;;;;;;;65.88;28.02;;;12.60;99.90;;;;;;5128518;27;20079;-64
2023/12/30 07:45:35;;;;;;;74.38;31.23;;;12.60;99.90;;;;;;5129605;27;20068;-62
2023/12/30 07:48:02;;;;;;;71.53;31.02;;;12.60;99.90;;;;;;5126544;27;20151;-63
2023/12/30 07:50:28;;;;;;;63.10;30.25;;;12.60;99.90;;;;;;5126295;27;20120;-67
2023/12/30 07:52:55;;;;;;;69.38;32.58;;;12.60;99.90;;;;;;5128545;27;20067;-66
2023/12/30 07:55:21;;;;;;;82.60;31.88;;;12.60;99.90;;;;;;5128331;27;20079;-63
2023/12/30 07:57:47;;;;;;;76.43;32.72;;;12.60;99.90;;;;;;5129404;27;20071;-63
2023/12/30 08:00:14;;;;;;;84.53;33.13;;;12.60;99.90;;;;;;5129184;27;20075;-63
2023/12/30 08:02:41;;;;;;;66.30;33.08;;;12.60;99.90;;;;;;5126860;27;20565;-63
2023/12/30 08:05:07;;;;;;;;;;;12.60;99.90;;;;;;5126353;27;20187;-64
2023/12/30 08:07:33;;;;;;;68.30;31.90;;;12.50;99.90;;;;;;5109413;27;19962;-63
2023/12/30 08:10:00;;;;;;;76.82;32.88;;;12.40;99.90;;;;;;5108733;27;20225;-64
2023/12/30 08:12:26;;;;;;;78.28;32.65;;;12.30;99.90;;;;;;5127907;27;20076;-63
2023/12/30 08:14:53;;;;;;;73.57;33.42;;;12.30;99.90;;;;;;5108480;27;20414;-64
2023/12/30 08:17:19;;;;;;;64.45;31.90;;;12.20;99.90;;;;;;5129791;27;20099;-63
2023/12/30 08:19:46;;;;;;;81.50;32.17;;;12.20;99.90;;;;;;5126677;27;20075;-64
2023/12/30 08:22:12;;;;;;;;;;;12.10;99.90;;;;;;5128523;27;20101;-63
2023/12/30 08:24:38;;;;;;;78.75;32.53;;;12.00;99.90;;;;;;5126461;27;19979;-63
2023/12/30 08:27:05;;;;;;;80.80;31.92;;;11.90;99.90;;;;;;5128844;27;20093;-63
2023/12/30 08:29:32;;;;;;;79.75;33.35;;;11.90;99.90;;;;;;5127716;27;20067;-63
2023/12/30 08:31:58;;;;;;;88.18;35.75;;;11.80;99.90;;;;;;5127018;27;20074;-63
2023/12/30 08:34:27;;;;;;;97.05;38.17;;;11.70;99.90;;;;;;5125724;27;20075;-63
2023/12/30 08:36:55;;;;;;;101.57;38.97;;;11.70;99.90;;;;;;5124744;27;20075;-64
2023/12/30 08:39:21;;;;;;;121.28;42.40;;;11.80;99.90;;;;;;5126334;27;20117;-62
2023/12/30 08:41:48;;;;;;;96.13;40.95;;;11.80;99.90;;;;;;5129002;27;20079;-63
2023/12/30 08:44:14;;;;;;;116.78;45.75;;;11.80;99.90;;;;;;5128378;27;20099;-64
2023/12/30 08:46:40;;;;;;;;;;;11.60;99.90;;;;;;5127501;27;20560;-64
2023/12/30 08:49:07;;;;;;;133.52;48.35;;;11.50;99.90;;;;;;5127373;27;19955;-65
2023/12/30 08:51:33;;;;;;;142.30;51.50;;;11.50;99.90;;;;;;5125746;27;20135;-63
2023/12/30 08:53:59;;;;;;;;;;;11.60;99.90;;;;;;5126397;27;20136;-63
2023/12/30 08:56:32;;;;;;;167.25;54.15;;;11.60;99.90;;;;;;5127051;27;20325;-64
2023/12/30 08:58:59;;;;;;;141.35;56.47;;;11.50;99.90;;;;;;5127567;27;20079;-64
2023/12/30 09:01:25;;;;;;;160.57;57.40;;;11.50;99.90;;;;;;5127744;27;20082;-63
2023/12/30 09:03:52;;;;;;;143.57;56.13;;;11.50;99.90;;;;;;5108717;27;20118;-63
2023/12/30 09:06:18;;;;;;;163.80;58.33;;;11.40;99.90;;;;;;5107896;27;20075;-63
2023/12/30 09:08:45;;;;;;;145.48;56.45;;;11.40;99.90;;;;;;5128069;27;20077;-63
2023/12/30 09:11:21;;;;;;;167.30;65.57;;;11.40;99.90;;;;;;5125992;27;20158;-63
2023/12/30 09:13:49;;;;;;;165.80;65.47;;;11.30;99.90;;;;;;5126522;27;20091;-63
2023/12/30 09:16:16;;;;;;;189.63;70.13;;;11.30;99.90;;;;;;5107490;28;20076;-62
2023/12/30 09:18:43;;;;;;;188.23;72.55;;;11.40;99.90;;;;;;5126256;28;20172;-61
2023/12/30 09:21:09;;;;;;;180.57;73.15;;;11.40;99.90;;;;;;5125397;28;20079;-62
2023/12/30 09:23:37;;;;;;;186.32;68.22;;;11.40;99.90;;;;;;5125849;28;20182;-63
2023/12/30 09:26:04;;;;;;;182.10;82.93;;;11.30;99.90;;;;;;5127150;28;20079;-63
2023/12/30 09:28:30;;;;;;;166.82;67.00;;;11.20;99.90;;;;;;5127812;28;20080;-63
2023/12/30 09:30:57;;;;;;;186.10;68.63;;;11.10;99.90;;;;;;5124747;28;20449;-62
2023/12/30 09:33:23;;;;;;;170.27;67.03;;;11.10;99.90;;;;;;5125250;28;20063;-63
2023/12/30 09:35:54;;;;;;;172.23;68.57;;;11.00;99.90;;;;;;5108581;28;20492;-63
2023/12/30 09:38:25;;;;;;;182.27;71.60;;;11.10;99.90;;;;;;5125499;28;20099;-63
2023/12/30 09:40:55;;;;;;;189.75;75.60;;;11.10;99.90;;;;;;5128459;28;20072;-63
2023/12/30 09:43:26;;;;;;;190.45;77.97;;;11.00;99.90;;;;;;5124955;28;20183;-63
2023/12/30 09:45:55;;;;;;;199.05;81.05;;;11.10;99.90;;;;;;5126358;28;20117;-62
2023/12/30 09:48:25;;;;;;;211.88;83.85;;;11.10;99.90;;;;;;5129563;27;20091;-63
2023/12/30 09:50:52;;;;;;;184.45;81.50;;;11.10;99.90;;;;;;5129703;27;20514;-62
2023/12/30 09:53:22;;;;;;;189.82;84.10;;;11.10;99.90;;;;;;5131325;27;20071;-62
2023/12/30 09:55:52;;;;;;;192.57;82.13;;;11.10;99.90;;;;;;5111131;27;20140;-62
2023/12/30 09:58:20;;;;;;;184.60;83.63;;;11.10;99.90;;;;;;5131348;27;20079;-62
2023/12/30 10:00:47;;;;;;;201.75;87.78;;;11.10;99.90;;;;;;5130344;27;20076;-62
2023/12/30 10:03:15;;;;;;;187.60;80.80;;;11.10;99.90;;;;;;5130653;27;20205;-62
2023/12/30 10:05:42;;;;;;;220.77;83.85;;;11.10;99.90;;;;;;5115364;27;20072;-63
2023/12/30 10:08:08;;;;;;;199.27;84.65;;;11.10;99.90;;;;;;5138747;27;20071;-62
2023/12/30 10:10:43;;;;;;;171.25;78.65;;;11.00;99.90;;;;;;5140169;27;20072;-63
2023/12/30 10:13:14;;;;;;;186.05;79.90;;;11.00;99.90;;;;;;5134799;27;20187;-63
2023/12/30 10:15:42;;;;;;;181.23;78.38;;;11.00;99.90;;;;;;5130951;27;20113;-62
2023/12/30 10:18:09;;;;;;;181.98;76.25;;;11.00;99.90;;;;;;5128410;27;20146;-63
2023/12/30 10:20:41;;;;;;;190.00;79.45;;;10.90;99.90;;;;;;5128913;27;20064;-63
2023/12/30 10:23:08;;;;;;;193.02;76.93;;;10.90;99.90;;;;;;5129753;27;20075;-63
2023/12/30 10:25:35;;;;;;;188.45;79.85;;;10.90;99.90;;;;;;5130353;27;20064;-63
2023/12/30 10:28:02;;;;;;;163.13;78.18;;;10.80;99.90;;;;;;5130097;27;20068;-63
2023/12/30 10:30:31;;;;;;;175.80;76.47;;;10.80;99.90;;;;;;5129919;27;20162;-63
2023/12/30 10:33:09;;;;;;;160.35;74.45;;;10.80;99.90;;;;;;5130343;27;20114;-63
2023/12/30 10:35:38;;;;;;;174.25;72.32;;;10.80;99.90;;;;;;5129949;27;20521;-63
2023/12/30 10:38:07;;;;;;;151.88;68.78;;;10.70;99.90;;;;;;5127047;27;20444;-63
2023/12/30 10:40:33;;;;;;;184.98;75.68;;;10.60;99.90;;;;;;5129767;27;20521;-63
2023/12/30 10:43:02;;;;;;;179.93;76.53;;;10.50;99.90;;;;;;5130682;27;20445;-63
2023/12/30 10:45:29;;;;;;;167.98;73.13;;;10.60;99.90;;;;;;5129179;27;20088;-63
2023/12/30 10:47:58;;;;;;;181.57;74.03;;;10.60;99.90;;;;;;5129807;27;20138;-63
2023/12/30 10:50:26;;;;;;;177.15;72.38;;;10.60;99.90;;;;;;5129280;27;20068;-64
2023/12/30 10:53:07;;;;;;;158.93;72.20;;;10.70;99.90;;;;;;5130166;27;20126;-63
2023/12/30 10:55:35;;;;;;;156.07;71.57;;;10.70;99.90;;;;;;5129114;27;20489;-63
2023/12/30 10:58:19;;;;;;;176.50;75.78;;;10.60;99.90;;;;;;5112180;27;20067;-64
2023/12/30 11:00:52;;;;;;;165.07;75.97;;;10.60;99.90;;;;;;5125486;27;20079;-63
2023/12/30 11:03:21;;;;;;;171.68;76.95;;;10.60;99.90;;;;;;5128680;27;20542;-63
2023/12/30 11:06:00;;;;;;;177.88;79.63;;;10.50;99.90;;;;;;5110379;27;20068;-64
2023/12/30 11:08:27;;;;;;;182.77;84.30;;;10.50;99.90;;;;;;5129428;27;20072;-64
2023/12/30 11:10:56;;;;;;;183.70;84.43;;;10.40;99.90;;;;;;5130068;27;20183;-64
2023/12/30 11:13:22;;;;;;;195.85;91.32;;;10.40;99.90;;;;;;5130389;27;20441;-63
2023/12/30 11:15:49;;;;;;;186.13;93.80;;;10.40;99.90;;;;;;5128156;27;20067;-63
2023/12/30 11:18:15;;;;;;;180.80;90.78;;;10.30;99.90;;;;;;5128723;27;20064;-64
2023/12/30 11:20:48;;;;;;;;;;;10.30;99.90;;;;;;5126591;27;20171;-63
2023/12/30 11:23:18;;;;;;;191.60;91.85;;;10.30;99.90;;;;;;5110971;27;20467;-64
2023/12/30 11:25:47;;;;;;;175.55;86.97;;;10.30;99.90;;;;;;5111396;27;20071;-64
2023/12/30 11:28:18;;;;;;;180.50;86.88;;;10.30;99.90;;;;;;5130564;27;20083;-63
2023/12/30 11:31:06;;;;;;;186.93;85.90;;;10.30;99.90;;;;;;5130458;27;20072;-63
2023/12/30 11:33:32;;;;;;;;;;;10.30;99.90;;;;;;5127262;27;20095;-63
2023/12/30 11:36:03;;;;;;;162.02;81.65;;;10.30;99.90;;;;;;5128921;27;20000;-63
2023/12/30 11:38:31;;;;;;;154.55;81.35;;;10.30;99.90;;;;;;5107652;27;20076;-62
2023/12/30 11:40:59;;;;;;;163.48;81.10;;;10.20;99.90;;;;;;5129673;27;20072;-62
2023/12/30 11:43:26;;;;;;;199.57;84.53;;;10.30;99.90;;;;;;5127204;27;20100;-64
2023/12/30 11:45:53;;;;;;;181.90;80.78;;;10.20;99.90;;;;;;5111690;27;20159;-63
2023/12/30 11:48:20;;;;;;;159.77;76.25;;;10.20;99.90;;;;;;5127016;27;20219;-63
2023/12/30 11:50:53;;;;;;;135.45;73.90;;;10.20;99.90;;;;;;5127064;27;20097;-62
2023/12/30 11:53:21;;;;;;;149.43;77.45;;;10.20;99.90;;;;;;5128190;27;20173;-63
2023/12/30 11:55:47;;;;;;;147.93;70.07;;;10.10;99.90;;;;;;5126520;27;20064;-63
2023/12/30 11:58:14;;;;;;;143.20;70.72;;;10.10;99.90;;;;;;5129131;27;20158;-62
2023/12/30 12:00:41;;;;;;;138.90;73.03;;;10.10;99.90;;;;;;5125996;27;20129;-63
2023/12/30 12:03:07;;;;;;;135.07;71.38;;;10.10;99.90;;;;;;5127224;27;20209;-63
2023/12/30 12:05:34;;;;;;;149.00;75.20;;;10.10;99.90;;;;;;5126941;27;20458;-63
2023/12/30 12:08:00;;;;;;;145.32;75.40;;;10.10;99.90;;;;;;5126728;27;20064;-63
2023/12/30 12:10:27;;;;;;;153.18;76.88;;;10.00;99.90;;;;;;5128113;27;20490;-62
2023/12/30 12:12:54;;;;;;;160.63;78.90;;;10.00;99.90;;;;;;5109813;27;20489;-63
2023/12/30 12:15:20;;;;;;;184.30;88.95;;;10.00;99.90;;;;;;5128101;27;20091;-63
2023/12/30 12:17:50;;;;;;;163.88;82.43;;;9.90;99.90;;;;;;5127259;27;20064;-63
2023/12/30 12:20:19;;;;;;;173.73;89.93;;;9.90;99.90;;;;;;5127397;27;20142;-63
2023/12/30 12:22:46;;;;;;;170.20;87.20;;;9.90;99.90;;;;;;5128544;27;20438;-62
2023/12/30 12:25:12;;;;;;;186.13;97.78;;;9.90;99.90;;;;;;5110711;27;20114;-63
2023/12/30 12:27:40;;;;;;;181.48;97.35;;;10.00;99.90;;;;;;5128448;27;20151;-63